Time;durP1;ratioP1;P1;durP2;ratioP2;P2;SDS_P1;SDS_P2;PMS_P1;PMS_P2;Temp;Humidity;BMP_temperature;BMP_pressure;BME280_temperature;BME280_humidity;BME280_pressure;Samples;Min_cycle;Max_cycle;Signal;HPM_P1;HPM_P2
2022/09/28 00:01:38;;;;;;;9.80;4.43;;;;;;;9.82;99.38;98756.66;3547380;81;98468;-83
2022/09/28 00:06:39;;;;;;;11.30;4.40;;;;;;;9.73;99.38;98742.64;3548227;81;26569;-83
2022/09/28 00:11:40;;;;;;;9.77;4.27;;;;;;;9.65;99.37;98737.83;3536741;82;98166;-83
2022/09/28 00:16:43;;;;;;;8.47;4.60;;;;;;;9.55;99.63;98733.84;3546117;81;32551;-83
2022/09/28 00:21:44;;;;;;;8.47;4.03;;;;;;;9.52;100.00;98736.82;3532611;82;98354;-83
2022/09/28 00:26:53;;;;;;;9.43;4.60;;;;;;;9.54;100.00;98726.80;3541432;81;25903;-83
2022/09/28 00:32:01;;;;;;;9.13;4.50;;;;;;;9.46;99.87;98728.85;3546379;82;98549;-83
2022/09/28 00:37:04;;;;;;;10.98;4.37;;;;;;;9.43;100.00;98725.54;3524345;83;32988;-83
2022/09/28 00:42:22;;;;;;;12.70;4.37;;;;;;;9.43;100.00;98717.91;3542563;81;98362;-83
2022/09/28 00:47:50;;;;;;;9.85;4.87;;;;;;;9.28;99.48;98725.51;3544860;83;34791;-83
2022/09/28 00:53:05;;;;;;;8.88;4.05;;;;;;;9.10;99.51;98720.05;3536043;83;98045;-83
2022/09/28 00:58:10;;;;;;;9.23;4.95;;;;;;;8.91;99.91;98715.13;3546930;82;34868;-83
2022/09/28 01:03:13;;;;;;;11.73;5.00;;;;;;;8.80;99.87;98714.45;3523741;82;97961;-82
2022/09/28 01:08:15;;;;;;;13.15;5.00;;;;;;;8.69;100.00;98725.53;3539995;82;35269;-83
2022/09/28 01:13:17;;;;;;;9.75;4.55;;;;;;;8.52;100.00;98723.73;3529718;83;98479;-83
2022/09/28 01:19:15;;;;;;;9.98;4.87;;;;;;;8.52;100.00;98716.88;3538713;83;35275;-83
2022/09/28 01:24:41;;;;;;;9.88;4.72;;;;;;;8.54;100.00;98719.19;3524458;82;98471;-83
2022/09/28 01:30:00;;;;;;;12.20;4.30;;;;;;;8.47;100.00;98713.77;3542938;83;25909;-83
2022/09/28 01:35:18;;;;;;;9.85;4.12;;;;;;;8.57;100.00;98706.81;3544221;82;98572;-82
2022/09/28 01:40:25;;;;;;;9.25;4.35;;;;;;;8.61;100.00;98707.57;3541881;83;34908;-83
2022/09/28 01:45:31;;;;;;;9.28;4.10;;;;;;;8.56;100.00;98703.13;3541170;83;97979;-83
2022/09/28 01:50:36;;;;;;;11.73;4.58;;;;;;;8.53;100.00;98714.31;3506267;82;25815;-82
2022/09/28 01:55:42;;;;;;;10.30;4.40;;;;;;;8.52;100.00;98705.12;3523281;83;98703;-83
2022/09/28 02:00:48;;;;;;;10.53;4.00;;;;;;;8.38;100.00;98712.06;3559586;83;26555;-83
2022/09/28 02:06:00;;;;;;;10.00;4.37;;;;;;;8.34;100.00;98708.59;3536534;82;98488;-83
2022/09/28 02:11:14;;;;;;;10.58;5.08;;;;;;;8.29;100.00;98709.02;3536874;83;32558;-83
2022/09/28 02:16:41;;;;;;;10.55;4.83;;;;;;;8.21;100.00;98716.52;3552639;83;34898;-83
2022/09/28 02:21:59;;;;;;;9.03;4.25;;;;;;;8.20;100.00;98725.12;3549743;82;98433;-83
2022/09/28 02:27:14;;;;;;;13.83;4.40;;;;;;;8.25;100.00;98739.78;3525144;83;34794;-82
2022/09/28 02:32:18;;;;;;;10.45;5.28;;;;;;;8.24;100.00;98738.98;3537156;82;98440;-82
2022/09/28 02:37:19;;;;;;;10.80;5.47;;;;;;;8.22;100.00;98742.73;3541672;83;34732;-83
2022/09/28 02:42:27;;;;;;;11.40;5.33;;;;;;;8.14;100.00;98741.20;3532063;83;98660;-82
2022/09/28 02:48:16;;;;;;;10.18;5.45;;;;;;;8.04;100.00;98742.62;3531315;82;34807;-82
2022/09/28 02:54:00;;;;;;;10.03;5.70;;;;;;;8.01;100.00;98742.06;3551225;82;98420;-82
2022/09/28 02:59:30;;;;;;;8.43;4.53;;;;;;;8.04;100.00;98729.71;3531856;83;36435;-83
2022/09/28 03:04:47;;;;;;;10.65;5.42;;;;;;;8.07;100.00;98734.98;3530864;83;98153;-83
2022/09/28 03:10:14;;;;;;;11.12;5.12;;;;;;;8.03;100.00;98730.10;3555080;81;34897;-82
2022/09/28 03:15:29;;;;;;;9.90;5.20;;;;;;;7.88;100.00;98734.89;3511173;82;98569;-83
2022/09/28 03:20:32;;;;;;;10.32;5.45;;;;;;;7.89;100.00;98729.59;3557048;81;35462;-83
2022/09/28 03:25:33;;;;;;;10.13;5.25;;;;;;;7.88;100.00;98722.56;3548339;81;98648;-82
2022/09/28 03:30:34;;;;;;;11.73;5.70;;;;;;;7.91;100.00;98719.62;3543696;81;26427;-83
2022/09/28 03:35:34;;;;;;;10.33;5.10;;;;;;;7.91;100.00;98716.88;3549029;81;98344;-82
2022/09/28 03:40:39;;;;;;;10.23;4.87;;;;;;;7.92;100.00;98723.91;3559379;81;32516;-82
2022/09/28 03:45:39;;;;;;;8.33;4.58;;;;;;;7.86;100.00;98711.21;3549112;81;98233;-83
2022/09/28 03:50:40;;;;;;;10.07;4.80;;;;;;;7.85;100.00;98715.13;3554239;81;26507;-82
2022/09/28 03:55:41;;;;;;;10.78;5.40;;;;;;;7.81;100.00;98713.00;3540477;81;98541;-82
2022/09/28 04:00:42;;;;;;;10.20;5.47;;;;;;;7.79;100.00;98712.63;3552876;81;32425;-82
2022/09/28 04:05:51;;;;;;;11.93;6.27;;;;;;;7.75;100.00;98706.98;3550466;81;98456;-82
2022/09/28 04:10:58;;;;;;;11.28;5.22;;;;;;;7.69;100.00;98710.72;3559752;82;34034;-82
2022/09/28 04:16:00;;;;;;;11.30;5.80;;;;;;;7.62;100.00;98708.03;3532534;82;98376;-82
2022/09/28 04:21:07;;;;;;;9.60;4.97;;;;;;;7.59;100.00;98711.55;3534677;82;35542;-82
2022/09/28 04:26:16;;;;;;;11.25;6.22;;;;;;;7.52;100.00;98714.93;3531666;83;98197;-82
2022/09/28 04:31:21;;;;;;;10.75;6.05;;;;;;;7.46;100.00;98713.18;3522659;83;98369;-82
2022/09/28 04:36:23;;;;;;;13.28;7.03;;;;;;;7.39;100.00;98709.69;3534521;83;34805;-82
2022/09/28 04:41:25;;;;;;;14.10;6.53;;;;;;;7.31;99.88;98710.30;3524892;82;104166;-81
2022/09/28 04:46:26;;;;;;;19.30;8.83;;;;;;;7.26;99.87;98707.20;3538302;83;26474;-82
2022/09/28 04:51:31;;;;;;;15.90;8.60;;;;;;;7.19;99.81;98712.10;3523830;82;98403;-82
2022/09/28 04:56:32;;;;;;;17.33;10.37;;;;;;;7.14;99.76;98709.77;3556419;81;25873;-82
2022/09/28 05:01:33;;;;;;;15.50;9.23;;;;;;;7.12;100.00;98703.92;3537639;81;98869;-82
2022/09/28 05:06:34;;;;;;;17.63;9.47;;;;;;;7.11;100.00;98705.11;3534069;83;32567;-81
2022/09/28 05:11:35;;;;;;;17.52;9.35;;;;;;;7.08;100.00;98703.15;3538699;83;98391;-81
2022/09/28 05:16:35;;;;;;;21.77;9.80;;;;;;;7.06;99.89;98708.82;3549635;81;32460;-82
2022/09/28 05:21:36;;;;;;;24.52;8.75;;;;;;;7.04;100.00;98712.55;3545060;82;98212;-82
2022/09/28 05:26:37;;;;;;;20.60;8.33;;;;;;;7.00;100.00;98706.30;3551046;82;32414;-82
2022/09/28 05:31:38;;;;;;;19.53;7.40;;;;;;;7.03;100.00;98713.13;3537320;82;98350;-83
2022/09/28 05:36:41;;;;;;;14.80;6.58;;;;;;;6.98;100.00;98706.69;3564895;81;32480;-82
2022/09/28 05:41:41;;;;;;;18.92;7.58;;;;;;;7.03;100.00;98705.52;3543142;81;98624;-82
2022/09/28 05:46:42;;;;;;;11.27;5.90;;;;;;;7.06;100.00;98708.82;3553165;82;26375;-82
2022/09/28 05:51:43;;;;;;;12.98;6.25;;;;;;;7.02;100.00;98706.09;3537276;83;98661;-84
2022/09/28 05:56:43;;;;;;;13.73;7.00;;;;;;;7.00;100.00;98702.98;3537532;83;26218;-84
2022/09/28 06:01:44;;;;;;;16.33;6.73;;;;;;;7.02;100.00;98699.84;3539384;83;98771;-82
2022/09/28 06:06:45;;;;;;;12.73;7.17;;;;;;;7.09;100.00;98714.27;3543799;82;25941;-84
2022/09/28 06:11:47;;;;;;;17.67;7.40;;;;;;;7.14;100.00;98711.14;3559096;81;98378;-83
2022/09/28 06:16:48;;;;;;;14.40;7.20;;;;;;;7.21;100.00;98711.72;3565317;81;26004;-82
2022/09/28 06:21:49;;;;;;;14.55;6.95;;;;;;;7.27;100.00;98704.66;3554183;81;98554;-83
2022/09/28 06:26:50;;;;;;;14.17;7.23;;;;;;;7.33;100.00;98698.39;3565114;81;32877;-84
2022/09/28 06:31:51;;;;;;;15.20;6.83;;;;;;;7.47;100.00;98697.55;3554852;81;98800;-82
2022/09/28 06:36:52;;;;;;;12.87;6.43;;;;;;;7.57;100.00;98700.23;3550441;81;33488;-83
2022/09/28 06:41:52;;;;;;;15.23;8.57;;;;;;;7.69;100.00;98692.16;3564121;81;98412;-83
2022/09/28 06:46:54;;;;;;;15.43;7.90;;;;;;;7.79;100.00;98689.35;3568057;81;33451;-83
2022/09/28 06:51:55;;;;;;;15.63;7.93;;;;;;;7.90;100.00;98696.16;3546156;81;98788;-83
2022/09/28 06:56:56;;;;;;;15.97;7.10;;;;;;;8.00;100.00;98691.97;3564789;81;33527;-85
2022/09/28 07:01:57;;;;;;;14.45;7.20;;;;;;;8.11;100.00;98704.20;3547048;81;98403;-85
2022/09/28 07:07:00;;;;;;;13.10;6.53;;;;;;;8.19;100.00;98705.73;3568422;81;32304;-87
2022/09/28 07:12:03;;;;;;;13.22;5.97;;;;;;;8.28;100.00;98710.97;3563809;81;98609;-87
2022/09/28 07:17:06;;;;;;;13.55;6.28;;;;;;;8.37;100.00;98714.05;3578324;81;32935;-85
2022/09/28 07:22:07;;;;;;;10.70;5.53;;;;;;;8.47;100.00;98711.82;3573780;81;98574;-86
2022/09/28 07:27:08;;;;;;;12.87;5.93;;;;;;;8.55;100.00;98703.70;3570706;81;31642;-86
2022/09/28 07:32:09;;;;;;;13.73;5.60;;;;;;;8.63;100.00;98706.59;3556103;81;99026;-83
2022/09/28 07:37:12;;;;;;;12.13;5.83;;;;;;;8.75;100.00;98703.92;3562340;81;31724;-84
2022/09/28 07:42:15;;;;;;;11.12;5.35;;;;;;;8.87;100.00;98693.23;3572273;81;98702;-85
2022/09/28 07:47:17;;;;;;;13.40;6.45;;;;;;;9.00;100.00;98697.00;3578557;81;33248;-86
2022/09/28 07:52:19;;;;;;;9.65;5.75;;;;;;;9.14;100.00;98700.19;3584634;81;98476;-85
2022/09/28 07:57:32;;;;;;;12.57;5.50;;;;;;;9.29;100.00;98691.41;3580924;81;32149;-86
2022/09/28 08:02:34;;;;;;;9.80;5.53;;;;;;;9.50;100.00;98693.11;3551432;81;98785;-86
2022/09/28 08:07:37;;;;;;;11.28;5.47;;;;;;;9.68;100.00;98693.66;3576575;81;31642;-85
2022/09/28 08:12:40;;;;;;;11.10;5.35;;;;;;;9.83;100.00;98705.44;3547286;80;98700;-86
2022/09/28 08:17:45;;;;;;;11.68;4.87;;;;;;;9.98;100.00;98704.02;3558587;83;33374;-86
2022/09/28 08:22:46;;;;;;;9.48;5.00;;;;;;;10.13;99.84;98703.25;3547067;82;98416;-85
2022/09/28 08:27:47;;;;;;;10.27;5.20;;;;;;;10.29;99.51;98708.90;3552572;82;32224;-86
2022/09/28 08:32:48;;;;;;;11.03;5.70;;;;;;;10.50;99.79;98709.36;3508715;83;98946;-85
2022/09/28 08:37:53;;;;;;;10.57;5.10;;;;;;;10.70;98.62;98705.30;3537122;83;31612;-86
2022/09/28 08:42:59;;;;;;;11.28;5.12;;;;;;;10.95;97.96;98699.53;3520235;83;98818;-85
2022/09/28 08:53:57;;;;;;;12.78;5.35;;;;;;;11.79;97.51;98683.33;3498672;82;98767;-84
2022/09/28 08:59:02;;;;;;;10.70;4.72;;;;;;;12.63;94.34;98689.62;3542655;83;25941;-84
2022/09/28 09:04:05;;;;;;;8.40;4.13;;;;;;;13.24;93.98;98692.57;3534632;83;98687;-84
2022/09/28 09:09:23;;;;;;;9.33;3.92;;;;;;;13.88;92.10;98688.16;3532648;82;33160;-84
2022/09/28 09:14:50;;;;;;;8.75;3.98;;;;;;;14.20;89.22;98674.75;3538989;81;98719;-86
2022/09/28 09:20:21;;;;;;;8.35;4.75;;;;;;;14.52;88.42;98678.66;3548645;82;32915;-83
2022/09/28 09:25:37;;;;;;;13.15;4.53;;;;;;;14.94;85.86;98671.72;3554060;82;98619;-86
2022/09/28 09:30:54;;;;;;;9.13;3.55;;;;;;;15.64;86.53;98664.42;3568097;81;26571;-86
2022/09/28 09:36:20;;;;;;;7.45;4.10;;;;;;;16.35;83.48;98666.63;3556573;81;98678;-85
2022/09/28 09:41:49;;;;;;;6.72;3.60;;;;;;;16.67;80.04;98666.14;3550864;81;98262;-83
2022/09/28 09:47:06;;;;;;;6.33;3.80;;;;;;;16.76;80.32;98670.30;3565799;81;32917;-85
2022/09/28 09:52:15;;;;;;;7.53;3.67;;;;;;;17.41;76.44;98674.25;3550214;81;98442;-84
2022/09/28 09:57:38;;;;;;;6.80;3.70;;;;;;;17.43;76.11;98659.88;3561636;81;32968;-85
2022/09/28 10:02:41;;;;;;;5.80;3.33;;;;;;;17.93;76.47;98658.52;3546033;81;99048;-84
2022/09/28 10:07:59;;;;;;;8.25;4.20;;;;;;;18.18;74.70;98659.53;3570621;81;33447;-85
2022/09/28 10:13:01;;;;;;;8.15;4.28;;;;;;;18.08;73.77;98654.45;3568789;81;98669;-88
2022/09/28 10:18:05;;;;;;;7.65;3.80;;;;;;;18.31;73.41;98646.16;3578914;81;33037;-87
2022/09/28 10:23:13;;;;;;;8.05;4.37;;;;;;;18.28;71.57;98654.08;3568735;81;98807;-87
2022/09/28 10:28:19;;;;;;;8.40;3.47;;;;;;;18.72;71.48;98649.53;3573964;81;33498;-86
2022/09/28 10:33:30;;;;;;;4.78;2.75;;;;;;;18.69;68.37;98653.25;3574133;81;98891;-87
2022/09/28 10:38:32;;;;;;;5.83;2.90;;;;;;;18.41;66.49;98650.47;3584482;81;32952;-87
2022/09/28 10:44:04;;;;;;;5.83;2.83;;;;;;;18.32;67.39;98642.16;3588638;81;98519;-87
2022/09/28 10:49:06;;;;;;;7.28;3.55;;;;;;;18.18;65.50;98645.61;3581262;81;33215;-86
2022/09/28 10:54:18;;;;;;;4.97;2.77;;;;;;;17.99;66.50;98636.41;3575013;81;98926;-86
2022/09/28 10:59:34;;;;;;;5.12;2.83;;;;;;;17.87;65.15;98632.57;3586466;81;33548;-87
2022/09/28 11:04:41;;;;;;;6.25;2.70;;;;;;;17.45;63.97;98643.49;3573580;81;98493;-86
2022/09/28 11:09:45;;;;;;;11.85;4.20;;;;;;;16.98;63.31;98637.00;3568028;81;32928;-85
2022/09/28 11:14:51;;;;;;;8.15;3.47;;;;;;;16.60;64.26;98639.42;3539523;81;98496;-89
2022/09/28 11:19:57;;;;;;;6.30;3.65;;;;;;;16.41;64.59;98635.67;3524618;81;25845;-86
2022/09/28 11:25:27;;;;;;;8.00;3.87;;;;;;;16.33;65.45;98639.32;3550938;82;98195;-89
2022/09/28 11:30:33;;;;;;;7.37;3.00;;;;;;;16.10;64.94;98637.09;3543824;83;33034;-86
2022/09/28 11:36:14;;;;;;;4.33;2.35;;;;;;;15.70;64.82;98636.89;3547649;82;98854;-86
2022/09/28 11:41:46;;;;;;;8.03;3.17;;;;;;;15.52;65.28;98638.94;3536626;82;98427;-86
2022/09/28 11:47:16;;;;;;;6.95;2.62;;;;;;;15.37;65.64;98631.61;3466194;84;32964;-91
2022/09/28 11:52:26;;;;;;;8.95;3.27;;;;;;;15.36;65.90;98635.61;3478584;83;98783;-86
2022/09/28 11:57:37;;;;;;;4.35;2.12;;;;;;;15.26;66.06;98634.72;3547773;81;34525;-87
2022/09/28 12:03:00;;;;;;;7.92;3.02;;;;;;;15.17;66.27;98628.34;3520583;82;98662;-88
2022/09/28 12:08:09;;;;;;;58.92;9.90;;;;;;;15.13;66.91;98627.69;3554528;83;32962;-89
2022/09/28 12:13:21;;;;;;;9.08;3.95;;;;;;;15.23;67.43;98619.61;3522545;82;98742;-84
2022/09/28 12:19:00;;;;;;;9.23;3.33;;;;;;;15.31;67.62;98624.44;3554445;81;33894;-85
2022/09/28 12:24:34;;;;;;;8.23;3.50;;;;;;;15.39;67.44;98627.16;3541541;82;98884;-85
2022/09/28 12:29:55;;;;;;;6.70;3.58;;;;;;;15.41;67.50;98626.69;3529537;83;33481;-85
2022/09/28 12:34:57;;;;;;;6.17;2.92;;;;;;;15.46;66.96;98615.02;3553068;82;98331;-86
2022/09/28 12:40:24;;;;;;;6.00;3.40;;;;;;;15.46;66.87;98616.40;3538715;81;26453;-84
2022/09/28 12:45:45;;;;;;;7.60;3.70;;;;;;;15.32;66.58;98609.35;3544656;81;98201;-85
2022/09/28 12:51:17;;;;;;;13.45;4.25;;;;;;;15.36;67.01;98611.42;3555019;83;33604;-84
2022/09/28 12:56:29;;;;;;;9.50;3.35;;;;;;;15.36;67.60;98605.87;3545848;83;32986;-86
2022/09/28 13:01:41;;;;;;;7.33;2.87;;;;;;;15.37;67.55;98618.50;3532413;82;98855;-83
2022/09/28 13:06:54;;;;;;;11.40;3.62;;;;;;;15.31;67.25;98607.05;3546658;83;33189;-87
2022/09/28 13:12:21;;;;;;;5.55;3.30;;;;;;;15.13;67.16;98612.45;3534474;81;98955;-84
2022/09/28 13:17:45;;;;;;;4.22;2.02;;;;;;;15.01;67.32;98611.91;3552432;81;32995;-84
2022/09/28 13:22:54;;;;;;;5.87;2.58;;;;;;;14.97;67.83;98608.48;3555711;80;98557;-86
2022/09/28 13:28:03;;;;;;;6.37;3.00;;;;;;;14.86;67.17;98615.00;3549106;81;34120;-85
2022/09/28 13:33:06;;;;;;;8.95;3.00;;;;;;;14.66;67.97;98609.75;3544670;81;98699;-85
2022/09/28 13:38:21;;;;;;;7.42;3.33;;;;;;;14.65;69.33;98608.81;3550669;81;33453;-85
2022/09/28 13:43:27;;;;;;;7.72;3.17;;;;;;;14.48;69.77;98595.75;3542773;81;98376;-86
2022/09/28 13:48:49;;;;;;;7.35;3.85;;;;;;;14.38;70.82;98594.73;3553010;81;25996;-86
2022/09/28 13:54:32;;;;;;;9.83;4.92;;;;;;;14.23;71.16;98599.19;3549314;81;98622;-85
2022/09/28 13:59:45;;;;;;;8.60;5.05;;;;;;;14.13;71.78;98596.12;3550462;81;32822;-85
2022/09/28 14:05:03;;;;;;;8.33;4.70;;;;;;;14.02;72.27;98595.69;3549204;81;98209;-85
2022/09/28 14:10:19;;;;;;;7.75;4.37;;;;;;;13.75;73.69;98599.50;3551527;81;33427;-86
2022/09/28 14:15:42;;;;;;;8.15;4.33;;;;;;;13.75;73.69;98599.50;3577039;81;98332;-85
2022/09/28 14:21:03;;;;;;;6.15;2.60;;;;;;;13.57;74.38;98605.56;3585475;81;32018;-85
2022/09/28 14:26:40;;;;;;;7.60;2.97;;;;;;;13.23;74.37;98626.70;3573437;81;98330;-86
2022/09/28 14:31:42;;;;;;;6.40;3.15;;;;;;;12.53;75.90;98654.19;3589431;81;98882;-86
2022/09/28 14:42:14;;;;;;;4.83;2.55;;;;;;;11.68;79.14;98679.44;3582464;81;98785;-89
2022/09/28 14:47:34;;;;;;;5.90;2.40;;;;;;;11.32;80.52;98669.52;3593996;81;34308;-91
2022/09/28 14:52:45;;;;;;;5.85;2.80;;;;;;;11.10;81.38;98659.54;3580207;81;98572;-92
2022/09/28 14:57:56;;;;;;;7.10;3.20;;;;;;;11.18;81.89;98665.07;3568395;81;32938;-93
2022/09/28 15:03:03;;;;;;;6.83;2.77;;;;;;;11.07;82.46;98658.23;3546553;82;98667;-95
2022/09/28 15:08:06;;;;;;;6.05;2.83;;;;;;;10.95;82.98;98643.73;3582748;81;33265;-95
2022/09/28 15:13:28;;;;;;;5.15;3.20;;;;;;;10.97;83.53;98651.71;3563954;81;98770;-93
2022/09/28 15:18:56;;;;;;;6.20;2.87;;;;;;;10.93;83.57;98646.89;3593119;81;32935;-96
2022/09/28 15:23:57;;;;;;;5.20;2.90;;;;;;;10.95;84.03;98636.23;3590480;82;97417;-96
2022/09/28 15:29:02;;;;;;;7.73;3.67;;;;;;;10.94;84.50;98644.31;3582569;81;31158;-96
2022/09/28 15:39:32;;;;;;;10.58;5.45;;;;;;;10.98;84.90;98634.02;3579842;81;28462;-96
2022/09/28 15:44:38;;;;;;;7.72;4.17;;;;;;;10.99;85.01;98634.78;3585326;81;98107;-96
2022/09/28 15:49:45;;;;;;;10.70;6.58;;;;;;;11.01;85.26;98633.16;3378180;78;58968;-82
2022/09/28 15:54:47;;;;;;;11.83;6.72;;;;;;;10.99;85.55;98634.19;3372041;85;98903;-83
2022/09/28 15:59:59;;;;;;;10.67;4.93;;;;;;;10.97;85.63;98638.56;3379654;86;31690;-83
2022/09/28 16:05:00;;;;;;;10.20;4.97;;;;;;;10.86;86.08;98638.75;3349559;86;98962;-84
2022/09/28 16:10:15;;;;;;;10.53;5.65;;;;;;;10.85;86.15;98646.08;3345637;87;33545;-84
2022/09/28 16:15:33;;;;;;;8.90;5.03;;;;;;;10.86;86.10;98651.13;3339310;85;98869;-84
2022/09/28 16:20:39;;;;;;;9.88;4.62;;;;;;;10.83;86.45;98649.23;3342041;87;32977;-84
2022/09/28 16:25:52;;;;;;;;;;;;;;;10.85;86.56;98653.72;3307563;86;98722;-84
2022/09/28 16:31:00;;;;;;;8.18;4.50;;;;;;;10.83;87.83;98660.83;3324291;89;32942;-83
2022/09/28 16:36:04;;;;;;;7.27;3.43;;;;;;;10.76;87.11;98662.34;3362967;87;98552;-84
2022/09/28 16:41:05;;;;;;;7.65;3.47;;;;;;;10.71;87.09;98662.24;3362690;87;33436;-85
2022/09/28 16:46:12;;;;;;;6.67;3.67;;;;;;;10.72;87.70;98665.75;3387707;87;98329;-83
2022/09/28 16:51:18;;;;;;;7.45;4.35;;;;;;;10.72;87.71;98665.16;3447741;85;31761;-83
2022/09/28 16:56:19;;;;;;;7.07;3.90;;;;;;;10.70;87.97;98667.57;3440556;85;31549;-83
2022/09/28 17:01:22;;;;;;;17.37;10.00;;;;;;;10.69;88.01;98674.24;3433236;85;98767;-84
2022/09/28 17:06:27;;;;;;;37.17;20.68;;;;;;;10.67;88.16;98675.27;3445558;85;32969;-83
2022/09/28 17:11:26;;;;;;;22.20;11.57;;;;;;;10.68;88.29;98676.06;3429925;85;102378;-83
2022/09/28 17:16:30;;;;;;;22.27;13.10;;;;;;;10.65;88.52;98663.13;3447160;85;31659;-84
2022/09/28 17:21:31;;;;;;;27.22;15.20;;;;;;;10.64;88.43;98668.46;3451796;84;99479;-84
2022/09/28 17:26:33;;;;;;;16.50;9.17;;;;;;;10.62;88.59;98670.84;3455949;85;32793;-83
2022/09/28 17:31:34;;;;;;;13.00;8.13;;;;;;;10.60;88.84;98685.03;3429603;85;98919;-83
2022/09/28 17:36:36;;;;;;;16.90;9.10;;;;;;;10.57;88.94;98683.10;3450908;85;32252;-83
2022/09/28 17:41:36;;;;;;;19.40;12.95;;;;;;;10.54;89.32;98688.08;3434551;85;99178;-83
2022/09/28 17:46:46;;;;;;;19.90;14.13;;;;;;;10.52;89.38;98685.57;3451699;85;32095;-83
2022/09/28 17:51:45;;;;;;;20.67;14.03;;;;;;;10.48;89.54;98684.84;3442862;84;99058;-83
2022/09/28 17:56:45;;;;;;;22.03;13.63;;;;;;;10.43;89.63;98682.56;3430038;85;31591;-84
2022/09/28 18:01:47;;;;;;;20.08;13.53;;;;;;;10.38;90.02;98693.45;3435010;84;98874;-84
2022/09/28 18:06:47;;;;;;;19.27;12.93;;;;;;;10.33;90.22;98689.80;3457705;84;31633;-84
2022/09/28 18:11:51;;;;;;;23.70;15.10;;;;;;;10.29;90.40;98689.66;3436713;85;99090;-86
2022/09/28 18:16:52;;;;;;;23.12;14.75;;;;;;;10.24;90.59;98692.28;3445809;85;32414;-85
2022/09/28 18:21:55;;;;;;;21.53;14.30;;;;;;;10.21;90.67;98697.84;3444198;84;98946;-85
2022/09/28 18:26:55;;;;;;;20.17;13.83;;;;;;;10.18;90.76;98709.66;3445518;85;33396;-84
2022/09/28 18:31:56;;;;;;;19.73;12.07;;;;;;;10.13;90.74;98710.12;3429075;85;99079;-84
2022/09/28 18:36:57;;;;;;;19.80;12.90;;;;;;;10.10;90.92;98718.63;3445759;85;31617;-83
2022/09/28 18:41:58;;;;;;;21.33;13.27;;;;;;;10.07;91.14;98722.19;3426471;85;98931;-83
2022/09/28 18:47:01;;;;;;;22.43;14.87;;;;;;;10.06;91.57;98720.64;3443587;85;31635;-84
2022/09/28 18:52:02;;;;;;;22.33;14.07;;;;;;;10.06;91.79;98725.34;3439314;84;98797;-84
2022/09/28 18:57:04;;;;;;;23.20;14.43;;;;;;;10.06;91.85;98725.34;3428377;86;31691;-84
2022/09/28 19:02:05;;;;;;;28.23;15.73;;;;;;;10.04;91.75;98727.73;3425849;85;98836;-84
2022/09/28 19:07:06;;;;;;;21.63;12.50;;;;;;;10.01;91.85;98731.27;3434231;86;31696;-84
2022/09/28 19:12:07;;;;;;;20.87;12.67;;;;;;;10.02;91.99;98733.61;3429132;85;98701;-84
2022/09/28 19:17:09;;;;;;;22.47;13.57;;;;;;;10.01;92.22;98740.30;3420012;85;31643;-84
2022/09/28 19:22:11;;;;;;;36.00;21.33;;;;;;;10.01;92.17;98747.77;3429147;84;98788;-83
2022/09/28 19:27:12;;;;;;;34.50;19.80;;;;;;;9.99;92.34;98747.41;3427908;84;32235;-84
2022/09/28 19:32:14;;;;;;;34.90;19.83;;;;;;;9.97;92.28;98752.55;3422293;85;98532;-83
2022/09/28 19:37:15;;;;;;;43.85;23.55;;;;;;;9.96;92.25;98751.75;3434914;86;33539;-84
2022/09/28 19:42:15;;;;;;;29.77;17.13;;;;;;;9.97;92.23;98759.42;3424645;84;98639;-84
2022/09/28 19:47:17;;;;;;;19.77;12.60;;;;;;;9.95;92.51;98752.95;3432833;85;32193;-84
2022/09/28 19:52:19;;;;;;;20.10;12.43;;;;;;;9.96;92.68;98762.75;3427957;84;98568;-83
2022/09/28 19:57:20;;;;;;;23.00;14.17;;;;;;;9.95;92.98;98757.66;3436714;85;31612;-83
2022/09/28 20:02:21;;;;;;;24.17;15.83;;;;;;;9.95;92.96;98762.57;3422274;84;98568;-84
2022/09/28 20:07:22;;;;;;;23.73;16.33;;;;;;;9.94;93.08;98767.89;3434570;84;31804;-84
2022/09/28 20:12:23;;;;;;;21.27;13.57;;;;;;;9.93;93.16;98769.05;3426603;84;98919;-83
2022/09/28 20:17:23;;;;;;;20.13;12.03;;;;;;;9.93;93.16;98771.05;3416165;85;31663;-84
2022/09/28 20:22:24;;;;;;;18.93;12.60;;;;;;;9.91;93.23;98781.65;3415702;84;98605;-83
2022/09/28 20:27:25;;;;;;;20.70;11.40;;;;;;;9.89;93.36;98784.83;3438320;84;31616;-86
2022/09/28 20:32:32;;;;;;;17.93;10.53;;;;;;;9.90;93.44;98796.00;3423793;85;98576;-85
2022/09/28 20:37:32;;;;;;;21.00;11.45;;;;;;;9.90;93.48;98804.24;3412763;85;26423;-85
2022/09/28 20:42:33;;;;;;;27.50;16.20;;;;;;;9.87;93.03;98799.56;3423064;84;98397;-85
2022/09/28 20:47:34;;;;;;;22.53;12.73;;;;;;;9.80;92.98;98799.65;3432331;84;31616;-85
2022/09/28 20:52:35;;;;;;;19.83;11.80;;;;;;;9.71;93.09;98806.22;3425718;84;98777;-85
2022/09/28 20:57:36;;;;;;;25.20;15.50;;;;;;;9.67;93.16;98818.45;3432312;85;31618;-85
2022/09/28 21:02:36;;;;;;;24.98;14.83;;;;;;;9.60;93.44;98815.78;3429723;85;98672;-85
2022/09/28 21:07:37;;;;;;;24.77;13.50;;;;;;;9.49;93.90;98822.75;3433621;84;31876;-85
2022/09/28 21:12:39;;;;;;;23.55;14.05;;;;;;;9.39;94.33;98825.00;3431680;85;98426;-85
2022/09/28 21:17:42;;;;;;;21.23;12.82;;;;;;;9.41;94.61;98832.26;3434880;86;31730;-84
2022/09/28 21:22:43;;;;;;;23.30;13.15;;;;;;;9.44;94.59;98826.55;3412721;84;98799;-85
2022/09/28 21:27:44;;;;;;;20.00;11.13;;;;;;;9.47;94.77;98828.46;3425023;86;25813;-85
2022/09/28 21:32:45;;;;;;;22.87;12.57;;;;;;;9.48;94.63;98836.91;3425774;85;98409;-84
2022/09/28 21:37:46;;;;;;;17.13;9.80;;;;;;;9.47;94.73;98840.23;3436646;85;34952;-84
2022/09/28 21:42:47;;;;;;;17.60;10.73;;;;;;;9.45;94.48;98853.60;3414905;85;98216;-85
2022/09/28 21:47:51;;;;;;;18.17;10.70;;;;;;;9.42;94.50;98860.47;3425790;86;34881;-85
2022/09/28 21:52:53;;;;;;;16.87;9.27;;;;;;;9.42;94.76;98864.59;3426074;85;98607;-84
2022/09/28 21:57:54;;;;;;;16.97;10.05;;;;;;;9.41;95.06;98859.71;3433154;84;31753;-85
2022/09/28 22:02:55;;;;;;;16.80;9.97;;;;;;;9.39;95.29;98867.55;3449485;85;98436;-85
2022/09/28 22:07:56;;;;;;;15.43;8.90;;;;;;;9.35;95.14;98861.92;3442677;85;35453;-85
2022/09/28 22:12:57;;;;;;;14.53;9.17;;;;;;;9.34;95.24;98874.09;3453762;85;98336;-85
2022/09/28 22:17:57;;;;;;;15.83;9.00;;;;;;;9.31;95.11;98882.55;3448918;84;36002;-84
2022/09/28 22:22:58;;;;;;;19.40;9.07;;;;;;;9.28;95.46;98874.34;3440477;84;98432;-85
2022/09/28 22:27:59;;;;;;;16.43;9.60;;;;;;;9.26;95.77;98887.09;3449811;84;34894;-86
2022/09/28 22:33:01;;;;;;;15.07;8.30;;;;;;;9.19;95.97;98886.38;3443032;85;98500;-85
2022/09/28 22:38:02;;;;;;;14.53;7.70;;;;;;;9.14;96.05;98893.08;3454109;85;34901;-86
2022/09/28 22:43:02;;;;;;;12.40;6.93;;;;;;;9.12;96.14;98894.09;3436884;84;98567;-86
2022/09/28 22:48:03;;;;;;;12.30;7.45;;;;;;;9.09;96.52;98897.63;3451116;85;35003;-86
2022/09/28 22:53:05;;;;;;;15.47;7.67;;;;;;;9.09;96.97;98911.34;3426255;85;98265;-85
2022/09/28 22:58:06;;;;;;;12.33;6.92;;;;;;;9.10;96.61;98908.78;3432552;85;34958;-85
2022/09/28 23:03:07;;;;;;;13.47;7.97;;;;;;;9.05;96.93;98917.45;3407362;86;98579;-85
2022/09/28 23:08:09;;;;;;;13.37;7.43;;;;;;;9.01;97.18;98917.29;3416645;85;32929;-85
2022/09/28 23:13:10;;;;;;;19.53;10.50;;;;;;;8.94;97.61;98922.84;3420545;85;98210;-85
2022/09/28 23:18:11;;;;;;;16.50;8.67;;;;;;;8.88;98.18;98925.81;3405141;85;25818;-86
2022/09/28 23:23:12;;;;;;;14.87;7.87;;;;;;;8.81;98.42;98925.84;3413895;85;98179;-85
2022/09/28 23:28:13;;;;;;;13.80;7.57;;;;;;;8.78;98.85;98932.91;3419437;86;25825;-85
2022/09/28 23:33:17;;;;;;;14.20;7.97;;;;;;;8.75;98.98;98941.16;3404994;85;98215;-85
2022/09/28 23:38:17;;;;;;;13.40;7.75;;;;;;;8.74;99.37;98945.88;3424143;85;35322;-85
2022/09/28 23:43:18;;;;;;;15.03;8.47;;;;;;;8.75;99.45;98948.02;3408856;84;98443;-85
2022/09/28 23:48:19;;;;;;;16.48;9.40;;;;;;;8.75;99.76;98940.58;3426996;86;33950;-85
2022/09/28 23:53:20;;;;;;;15.87;9.40;;;;;;;8.72;100.00;98944.72;3421242;84;98532;-86
2022/09/28 23:58:21;;;;;;;18.63;10.83;;;;;;;8.70;100.00;98947.06;3442954;85;32573;-85
